Time;durP1;ratioP1;P1;durP2;ratioP2;P2;SDS_P1;SDS_P2;PMS_P1;PMS_P2;Temp;Humidity;BMP_temperature;BMP_pressure;BME280_temperature;BME280_humidity;BME280_pressure;Samples;Min_cycle;Max_cycle;Signal;HPM_P1;HPM_P2
2023/01/31 02:28:39;;;;;;;;;;;17.80;39.80;;;;;;3026850;19;3310;-27
2023/01/31 02:30:04;;;;;;;;;;;17.70;39.80;;;;;;3049967;19;4733;-72
2023/01/31 02:31:17;;;;;;;;;;;17.70;39.70;;;;;;3053731;19;4862;-77
2023/01/31 02:32:45;;;;;;;;;;;17.70;39.70;;;;;;3052372;19;5916;-78
2023/01/31 02:33:54;;;;;;;;;;;17.70;39.80;;;;;;3031449;19;4815;-78
2023/01/31 02:35:14;;;;;;;;;;;17.70;39.80;;;;;;3032000;19;4532;-79
2023/01/31 02:36:32;;;;;;;;;;;17.70;39.70;;;;;;3052423;19;4928;-77
2023/01/31 02:38:02;;;;;;;;;;;17.70;39.60;;;;;;3049413;19;4892;-79
2023/01/31 02:39:36;;;;;;;;;;;17.70;39.80;;;;;;3048491;19;4358;-79
2023/01/31 02:40:56;;;;;;;;;;;17.70;39.80;;;;;;2946767;19;2006461;-80
2023/01/31 02:42:26;;;;;;;;;;;17.70;39.80;;;;;;3048370;19;5095;-76
2023/01/31 02:45:15;;;;;;;;;;;17.70;39.70;;;;;;3052252;19;4369;-77
2023/01/31 02:46:16;;;;;;;;;;;17.70;40.30;;;;;;3054786;19;4344;-77
2023/01/31 02:47:29;;;;;;;;;;;17.70;39.70;;;;;;3054960;19;4376;-78
2023/01/31 02:48:45;;;;;;;;;;;17.70;39.70;;;;;;3055697;19;5320;-78
2023/01/31 02:49:57;;;;;;;;;;;17.60;39.60;;;;;;3055704;19;4866;-78
2023/01/31 02:51:07;;;;;;;;;;;17.60;39.70;;;;;;3056430;19;4895;-79
2023/01/31 02:52:17;;;;;;;;;;;17.60;39.60;;;;;;3055169;19;4433;-77
2023/01/31 02:53:25;;;;;;;;;;;17.60;39.70;;;;;;3056208;19;4372;-77
2023/01/31 02:56:13;;;;;;;;;;;17.60;39.70;;;;;;3052479;19;4338;-78
2023/01/31 02:56:16;;;;;;;;;;;17.60;39.70;;;;;;3051762;19;4958;-80
2023/01/31 02:57:17;;;;;;;;;;;17.60;39.70;;;;;;3048850;19;5027;-77
2023/01/31 02:58:18;;;;;;;;;;;17.60;39.70;;;;;;3054293;19;4327;-78
2023/01/31 02:59:24;;;;;;;;;;;17.60;39.70;;;;;;3052539;19;4340;-78
2023/01/31 03:00:25;;;;;;;;;;;17.60;39.80;;;;;;3054636;19;4350;-77
2023/01/31 03:01:31;;;;;;;;;;;17.60;39.70;;;;;;3050636;19;4807;-84
2023/01/31 03:02:32;;;;;;;;;;;17.60;39.70;;;;;;3054585;19;4764;-77
2023/01/31 03:03:34;;;;;;;;;;;17.60;39.80;;;;;;3051607;19;4878;-78
2023/01/31 03:04:35;;;;;;;;;;;17.60;39.60;;;;;;3051659;19;4400;-80
2023/01/31 03:05:36;;;;;;;;;;;17.60;39.70;;;;;;3054633;19;4379;-81
2023/01/31 03:06:36;;;;;;;;;;;17.60;39.70;;;;;;3052674;19;4395;-81
2023/01/31 03:07:37;;;;;;;;;;;17.60;39.70;;;;;;3050935;19;4313;-79
2023/01/31 03:08:38;;;;;;;;;;;17.60;39.60;;;;;;3051824;19;4381;-78
2023/01/31 03:10:15;;;;;;;;;;;17.60;39.70;;;;;;3053180;19;4914;-76
2023/01/31 03:11:16;;;;;;;;;;;17.60;39.60;;;;;;3051357;19;4831;-77
2023/01/31 03:12:42;;;;;;;;;;;17.50;39.70;;;;;;3053159;19;5866;-81
2023/01/31 03:13:48;;;;;;;;;;;17.60;39.80;;;;;;3052219;19;4312;-78
2023/01/31 03:14:51;;;;;;;;;;;17.60;39.80;;;;;;3052988;19;4964;-81
2023/01/31 03:17:49;;;;;;;;;;;17.50;39.70;;;;;;2950232;19;2004203;-78
2023/01/31 03:19:29;;;;;;;;;;;17.50;39.70;;;;;;3050837;19;4301;-78
2023/01/31 03:20:35;;;;;;;;;;;17.50;39.70;;;;;;2948338;19;2005762;-78
2023/01/31 03:21:37;;;;;;;;;;;17.50;39.70;;;;;;3052731;19;4385;-80
2023/01/31 03:22:40;;;;;;;;;;;17.50;39.80;;;;;;3048778;19;4437;-81
2023/01/31 03:23:41;;;;;;;;;;;17.50;39.80;;;;;;3051093;19;4930;-77
2023/01/31 03:24:46;;;;;;;;;;;17.50;39.70;;;;;;3049846;19;4777;-79
2023/01/31 03:25:47;;;;;;;;;;;17.50;39.80;;;;;;3049606;19;4425;-78
2023/01/31 03:26:47;;;;;;;;;;;17.50;39.80;;;;;;3048116;19;4328;-77
2023/01/31 03:27:51;;;;;;;;;;;17.50;39.80;;;;;;3051220;19;4896;-77
2023/01/31 03:28:55;;;;;;;;;;;17.50;39.80;;;;;;3049263;19;4389;-81
2023/01/31 03:30:01;;;;;;;;;;;17.50;39.80;;;;;;3052168;19;4342;-79
2023/01/31 03:31:17;;;;;;;;;;;17.50;39.80;;;;;;3052774;19;4904;-77
2023/01/31 03:32:26;;;;;;;;;;;17.50;39.80;;;;;;2949915;19;2004388;-77
2023/01/31 03:33:35;;;;;;;;;;;17.50;39.80;;;;;;3046621;19;4884;-77
2023/01/31 03:34:35;;;;;;;;;;;17.50;39.80;;;;;;3048817;19;4840;-79
2023/01/31 03:35:36;;;;;;;;;;;17.50;39.70;;;;;;3050567;19;4374;-79
2023/01/31 03:36:38;;;;;;;;;;;17.50;39.80;;;;;;3051329;19;4362;-80
2023/01/31 03:37:45;;;;;;;;;;;17.40;39.70;;;;;;3050210;19;4952;-78
2023/01/31 03:39:15;;;;;;;;;;;17.50;39.80;;;;;;3050779;19;4983;-81
2023/01/31 03:40:29;;;;;;;;;;;17.50;39.80;;;;;;3047319;19;5396;-79
2023/01/31 03:41:33;;;;;;;;;;;17.40;39.70;;;;;;3049853;19;4831;-78
2023/01/31 03:42:56;;;;;;;;;;;17.40;39.80;;;;;;3049600;19;4911;-78
2023/01/31 03:44:07;;;;;;;;;;;17.50;39.80;;;;;;3051933;19;4792;-81
2023/01/31 03:45:17;;;;;;;;;;;17.40;39.80;;;;;;3050178;19;4668;-78
2023/01/31 03:46:20;;;;;;;;;;;17.40;39.90;;;;;;3045968;19;4499;-80
2023/01/31 03:47:30;;;;;;;;;;;17.40;39.80;;;;;;3048465;19;5009;-80
2023/01/31 03:48:34;;;;;;;;;;;17.40;40.40;;;;;;3044940;19;4309;-79
2023/01/31 03:49:35;;;;;;;;;;;17.40;39.80;;;;;;3045618;19;4899;-79
2023/01/31 03:50:38;;;;;;;;;;;17.40;39.80;;;;;;3051458;19;4376;-77
2023/01/31 03:51:41;;;;;;;;;;;17.40;39.70;;;;;;3052091;19;4867;-78
2023/01/31 03:52:46;;;;;;;;;;;17.40;39.80;;;;;;3054281;19;4369;-78
2023/01/31 03:53:49;;;;;;;;;;;17.40;39.80;;;;;;3056773;19;4881;-79
2023/01/31 03:54:57;;;;;;;;;;;17.40;39.80;;;;;;3051706;19;4376;-80
2023/01/31 03:56:12;;;;;;;;;;;17.40;39.90;;;;;;3050115;19;4499;-78
2023/01/31 03:57:24;;;;;;;;;;;17.40;39.90;;;;;;3050921;19;4945;-79
2023/01/31 03:58:29;;;;;;;;;;;17.40;39.80;;;;;;3052476;19;4844;-80
2023/01/31 03:59:33;;;;;;;;;;;17.40;39.90;;;;;;3051203;19;4977;-77
2023/01/31 04:00:34;;;;;;;;;;;17.40;39.90;;;;;;3053253;19;4546;-78
2023/01/31 04:01:37;;;;;;;;;;;17.40;39.90;;;;;;3051403;19;4750;-80
2023/01/31 04:02:40;;;;;;;;;;;17.40;39.90;;;;;;3052936;19;4833;-78
2023/01/31 04:03:42;;;;;;;;;;;17.30;39.80;;;;;;3051778;19;4820;-78
2023/01/31 04:04:55;;;;;;;;;;;17.40;39.90;;;;;;3054302;19;4380;-77
2023/01/31 04:05:55;;;;;;;;;;;17.30;39.90;;;;;;3050422;19;4353;-80
2023/01/31 04:06:56;;;;;;;;;;;17.40;40.00;;;;;;3054492;19;4902;-80
2023/01/31 04:07:58;;;;;;;;;;;17.40;40.00;;;;;;3052495;19;4341;-78
2023/01/31 04:08:58;;;;;;;;;;;17.40;39.90;;;;;;3055404;19;4733;-76
2023/01/31 04:09:59;;;;;;;;;;;17.40;39.90;;;;;;3055577;19;4343;-78
2023/01/31 04:11:03;;;;;;;;;;;17.40;40.00;;;;;;3053405;19;4865;-77
2023/01/31 04:12:04;;;;;;;;;;;17.30;39.90;;;;;;3053503;19;4909;-80
2023/01/31 04:13:05;;;;;;;;;;;17.30;39.90;;;;;;3056712;19;4392;-76
2023/01/31 04:14:05;;;;;;;;;;;17.30;40.00;;;;;;3056424;19;4685;-79
2023/01/31 04:15:07;;;;;;;;;;;17.40;39.90;;;;;;3057334;19;884;-79
2023/01/31 04:16:08;;;;;;;;;;;17.30;40.00;;;;;;3054671;19;4927;-79
2023/01/31 04:17:08;;;;;;;;;;;17.30;40.00;;;;;;3053699;19;4825;-79
2023/01/31 04:18:09;;;;;;;;;;;17.40;40.00;;;;;;3060353;19;4783;-77
2023/01/31 04:19:10;;;;;;;;;;;17.30;40.10;;;;;;3057466;19;4448;-78
2023/01/31 04:20:12;;;;;;;;;;;17.30;40.00;;;;;;3057731;19;4779;-77
2023/01/31 04:21:14;;;;;;;;;;;17.30;40.00;;;;;;3058495;19;4351;-77
2023/01/31 04:22:14;;;;;;;;;;;17.30;40.00;;;;;;3059743;19;4908;-79
2023/01/31 04:23:17;;;;;;;;;;;17.30;40.00;;;;;;3060447;19;942;-78
2023/01/31 04:24:18;;;;;;;;;;;17.30;40.00;;;;;;3057749;19;4953;-77
2023/01/31 04:25:18;;;;;;;;;;;17.30;40.70;;;;;;3057540;19;4340;-78
2023/01/31 04:26:19;;;;;;;;;;;17.30;40.10;;;;;;3057776;19;4841;-76
2023/01/31 04:27:20;;;;;;;;;;;17.30;40.00;;;;;;3057768;19;4880;-79
2023/01/31 04:28:21;;;;;;;;;;;17.30;40.10;;;;;;3057301;19;4869;-78
2023/01/31 04:29:21;;;;;;;;;;;17.30;40.10;;;;;;3056198;19;4474;-78
2023/01/31 04:30:22;;;;;;;;;;;17.30;40.10;;;;;;3056943;19;4348;-78
2023/01/31 04:31:23;;;;;;;;;;;17.30;40.10;;;;;;3056903;19;4475;-78
2023/01/31 04:32:23;;;;;;;;;;;17.30;40.10;;;;;;3056164;19;4810;-80
2023/01/31 04:33:24;;;;;;;;;;;17.30;40.10;;;;;;3056843;19;4782;-77
2023/01/31 04:34:25;;;;;;;;;;;17.30;40.10;;;;;;3056424;19;4940;-77
2023/01/31 04:35:25;;;;;;;;;;;17.30;39.80;;;;;;3058147;19;4340;-77
2023/01/31 04:36:26;;;;;;;;;;;17.30;39.50;;;;;;3057218;19;4343;-78
2023/01/31 04:37:27;;;;;;;;;;;17.30;39.50;;;;;;3057832;19;4834;-79
2023/01/31 04:38:27;;;;;;;;;;;17.30;39.70;;;;;;3057144;19;4847;-78
2023/01/31 04:39:28;;;;;;;;;;;17.30;39.90;;;;;;3057950;19;5295;-80
2023/01/31 04:40:29;;;;;;;;;;;17.30;40.00;;;;;;3057601;19;4461;-78
2023/01/31 04:41:29;;;;;;;;;;;17.40;39.90;;;;;;3055842;19;4405;-77
2023/01/31 04:42:30;;;;;;;;;;;17.40;39.80;;;;;;3055204;19;4773;-80
2023/01/31 04:43:30;;;;;;;;;;;17.50;39.70;;;;;;3056723;19;5060;-76
2023/01/31 04:44:32;;;;;;;;;;;17.60;39.60;;;;;;3056500;19;4463;-77
2023/01/31 04:45:33;;;;;;;;;;;17.60;39.50;;;;;;3057034;19;4738;-78
2023/01/31 04:46:33;;;;;;;;;;;17.60;39.40;;;;;;3056387;19;4401;-77
2023/01/31 04:47:34;;;;;;;;;;;17.60;39.30;;;;;;3056391;19;4282;-77
2023/01/31 04:48:35;;;;;;;;;;;17.60;39.30;;;;;;3056528;19;4323;-77
2023/01/31 04:49:35;;;;;;;;;;;17.60;39.20;;;;;;3055835;19;4908;-79
2023/01/31 04:50:36;;;;;;;;;;;17.60;39.10;;;;;;3057313;19;4340;-78
2023/01/31 04:51:37;;;;;;;;;;;17.70;39.20;;;;;;3056348;19;4930;-78
2023/01/31 04:52:37;;;;;;;;;;;17.70;39.10;;;;;;3057106;19;4844;-76
2023/01/31 04:53:38;;;;;;;;;;;17.60;39.10;;;;;;3057075;19;4875;-76
2023/01/31 04:54:40;;;;;;;;;;;17.70;39.10;;;;;;3055675;19;5121;-78
2023/01/31 04:55:41;;;;;;;;;;;17.70;39.10;;;;;;3056459;19;4344;-82
2023/01/31 04:56:41;;;;;;;;;;;17.80;38.90;;;;;;3055327;19;4512;-77
2023/01/31 04:57:42;;;;;;;;;;;17.90;38.80;;;;;;3055798;19;4774;-78
2023/01/31 04:58:43;;;;;;;;;;;17.90;38.70;;;;;;3055598;19;4442;-77
2023/01/31 04:59:43;;;;;;;;;;;17.90;38.60;;;;;;3056282;19;4458;-77
2023/01/31 05:00:44;;;;;;;;;;;17.90;38.60;;;;;;3054526;19;4858;-81
2023/01/31 05:01:45;;;;;;;;;;;17.90;38.60;;;;;;3053478;19;4810;-79
2023/01/31 05:02:45;;;;;;;;;;;18.00;38.60;;;;;;3053759;19;4280;-77
2023/01/31 05:03:46;;;;;;;;;;;17.90;38.50;;;;;;3056495;19;4281;-78
2023/01/31 05:04:47;;;;;;;;;;;18.00;38.50;;;;;;3056443;19;4892;-78
2023/01/31 05:05:48;;;;;;;;;;;18.00;38.50;;;;;;3055289;19;4825;-76
2023/01/31 05:06:48;;;;;;;;;;;17.90;38.50;;;;;;3055078;19;4342;-77
2023/01/31 05:07:52;;;;;;;;;;;17.90;38.50;;;;;;3055110;19;4848;-77
2023/01/31 05:08:53;;;;;;;;;;;18.00;38.50;;;;;;3055347;19;4826;-79
2023/01/31 05:09:54;;;;;;;;;;;18.00;38.40;;;;;;3057459;19;4281;-76
2023/01/31 05:10:58;;;;;;;;;;;18.00;38.30;;;;;;3056760;19;4884;-77
2023/01/31 05:11:59;;;;;;;;;;;18.10;38.20;;;;;;3057229;19;4301;-78
2023/01/31 05:13:00;;;;;;;;;;;18.10;38.00;;;;;;3057208;19;5083;-77
2023/01/31 05:14:00;;;;;;;;;;;18.10;38.00;;;;;;3055212;19;4386;-78
2023/01/31 05:15:02;;;;;;;;;;;18.10;37.90;;;;;;3055937;19;4364;-75
2023/01/31 05:16:09;;;;;;;;;;;18.20;37.90;;;;;;3055285;19;4239;-77
2023/01/31 05:17:10;;;;;;;;;;;18.20;37.90;;;;;;3057513;19;4769;-79
2023/01/31 05:18:10;;;;;;;;;;;18.20;37.80;;;;;;3055588;19;4845;-78
2023/01/31 05:19:11;;;;;;;;;;;18.20;37.90;;;;;;3054611;19;4346;-79
2023/01/31 05:20:11;;;;;;;;;;;18.20;37.80;;;;;;3054833;19;4928;-77
2023/01/31 05:21:13;;;;;;;;;;;18.20;37.80;;;;;;3054122;19;4326;-79
2023/01/31 05:22:14;;;;;;;;;;;18.20;37.80;;;;;;3055818;19;817;-78
2023/01/31 05:23:16;;;;;;;;;;;18.20;37.80;;;;;;3055405;19;4926;-77
2023/01/31 05:24:19;;;;;;;;;;;18.20;37.70;;;;;;3055303;19;4337;-77
2023/01/31 05:25:19;;;;;;;;;;;18.20;37.70;;;;;;3055897;19;4834;-78
2023/01/31 05:26:20;;;;;;;;;;;18.20;37.80;;;;;;3055947;19;4917;-81
2023/01/31 05:27:20;;;;;;;;;;;18.10;37.80;;;;;;3055825;19;4348;-77
2023/01/31 05:28:22;;;;;;;;;;;18.10;37.70;;;;;;3055890;19;4305;-80
2023/01/31 05:29:24;;;;;;;;;;;18.10;37.80;;;;;;3055979;19;4827;-80
2023/01/31 05:30:25;;;;;;;;;;;18.10;37.70;;;;;;3055895;19;4537;-76
2023/01/31 05:31:26;;;;;;;;;;;18.10;37.70;;;;;;3055324;19;5031;-78
2023/01/31 05:32:26;;;;;;;;;;;18.10;37.80;;;;;;3056181;19;4390;-77
2023/01/31 05:33:27;;;;;;;;;;;18.10;37.70;;;;;;3055641;19;5025;-80
2023/01/31 05:34:31;;;;;;;;;;;18.10;37.60;;;;;;3055073;19;4450;-78
2023/01/31 05:35:32;;;;;;;;;;;18.10;37.70;;;;;;3055415;19;5198;-77
2023/01/31 05:36:33;;;;;;;;;;;18.10;37.60;;;;;;3055597;19;4820;-78
2023/01/31 05:37:34;;;;;;;;;;;18.10;37.70;;;;;;3055619;19;4802;-78
2023/01/31 05:38:34;;;;;;;;;;;18.10;37.50;;;;;;3052822;19;4375;-77
2023/01/31 05:39:35;;;;;;;;;;;18.10;37.40;;;;;;3055283;19;4892;-76
2023/01/31 05:40:36;;;;;;;;;;;18.10;37.50;;;;;;3056648;19;4856;-79
2023/01/31 05:41:37;;;;;;;;;;;18.10;37.50;;;;;;3056476;19;4385;-77
2023/01/31 05:42:38;;;;;;;;;;;18.10;37.60;;;;;;3054840;19;4341;-77
2023/01/31 05:43:38;;;;;;;;;;;18.10;37.60;;;;;;3055550;19;4355;-77
2023/01/31 05:44:39;;;;;;;;;;;18.10;37.60;;;;;;3056022;19;4854;-77
2023/01/31 05:45:40;;;;;;;;;;;18.20;37.60;;;;;;3056550;19;4980;-78
2023/01/31 05:46:40;;;;;;;;;;;18.20;37.50;;;;;;3055329;19;4341;-77
2023/01/31 05:47:41;;;;;;;;;;;18.30;37.50;;;;;;3056549;19;4941;-77
2023/01/31 05:48:42;;;;;;;;;;;18.30;37.40;;;;;;3055246;19;4910;-76
2023/01/31 05:49:42;;;;;;;;;;;18.40;37.40;;;;;;3055680;19;5993;-80
2023/01/31 05:50:43;;;;;;;;;;;18.40;37.20;;;;;;3054106;19;4396;-77
2023/01/31 05:51:44;;;;;;;;;;;18.50;37.20;;;;;;3055119;19;4526;-76
2023/01/31 05:52:55;;;;;;;;;;;18.50;37.10;;;;;;3055793;19;4521;-76
2023/01/31 05:53:56;;;;;;;;;;;18.50;37.20;;;;;;3055012;19;4308;-77
2023/01/31 05:54:56;;;;;;;;;;;18.60;37.10;;;;;;3053903;19;4809;-78
2023/01/31 05:55:57;;;;;;;;;;;18.60;37.10;;;;;;3054183;19;4822;-78
2023/01/31 05:56:58;;;;;;;;;;;18.70;37.10;;;;;;3052439;19;4857;-78
2023/01/31 05:57:59;;;;;;;;;;;18.70;37.30;;;;;;3054397;19;5034;-78
2023/01/31 05:59:02;;;;;;;;;;;18.70;37.00;;;;;;3052224;19;5016;-77
2023/01/31 06:00:03;;;;;;;;;;;18.70;36.80;;;;;;3052789;19;4902;-77
2023/01/31 06:01:03;;;;;;;;;;;18.70;36.70;;;;;;3053549;19;4829;-78
2023/01/31 06:02:04;;;;;;;;;;;18.70;36.80;;;;;;3053804;19;4924;-78
2023/01/31 06:03:05;;;;;;;;;;;18.70;36.70;;;;;;3053643;19;4813;-78
2023/01/31 06:04:05;;;;;;;;;;;18.70;36.60;;;;;;3052153;19;4434;-78
2023/01/31 06:05:07;;;;;;;;;;;18.70;36.70;;;;;;3053740;19;1214;-81
2023/01/31 06:06:07;;;;;;;;;;;18.70;36.60;;;;;;3052822;19;4764;-77
2023/01/31 06:07:08;;;;;;;;;;;18.70;36.60;;;;;;3052862;19;5107;-78
2023/01/31 06:08:09;;;;;;;;;;;18.70;36.70;;;;;;3053102;19;4841;-77
2023/01/31 06:09:10;;;;;;;;;;;18.70;36.70;;;;;;3051834;19;4437;-78
2023/01/31 06:10:11;;;;;;;;;;;18.70;36.80;;;;;;3053856;19;4915;-78
2023/01/31 06:11:12;;;;;;;;;;;18.60;36.80;;;;;;3054337;19;4415;-78
2023/01/31 06:12:15;;;;;;;;;;;18.60;36.80;;;;;;3053831;19;4936;-77
2023/01/31 06:13:16;;;;;;;;;;;18.60;36.70;;;;;;3053807;19;4823;-81
2023/01/31 06:14:17;;;;;;;;;;;18.70;36.80;;;;;;3051248;19;4353;-78
2023/01/31 06:15:18;;;;;;;;;;;18.70;36.80;;;;;;3052306;19;4932;-81
2023/01/31 06:16:18;;;;;;;;;;;18.80;36.70;;;;;;3052687;19;4913;-78
2023/01/31 06:17:22;;;;;;;;;;;18.80;36.60;;;;;;3054978;19;4897;-79
2023/01/31 06:18:24;;;;;;;;;;;18.90;36.60;;;;;;3053873;19;4921;-78
2023/01/31 06:19:24;;;;;;;;;;;18.90;36.50;;;;;;3054750;19;4394;-78
2023/01/31 06:20:25;;;;;;;;;;;18.90;36.40;;;;;;3055246;19;4855;-78
2023/01/31 06:21:26;;;;;;;;;;;19.00;36.40;;;;;;3055279;19;4882;-77
2023/01/31 06:22:27;;;;;;;;;;;19.00;36.30;;;;;;3054443;19;4527;-78
2023/01/31 06:23:28;;;;;;;;;;;19.00;36.30;;;;;;3055158;19;4369;-79
2023/01/31 06:24:28;;;;;;;;;;;19.00;36.30;;;;;;3055311;19;4311;-78
2023/01/31 06:25:30;;;;;;;;;;;19.00;36.30;;;;;;3054770;19;4951;-78
2023/01/31 06:26:30;;;;;;;;;;;19.00;36.30;;;;;;3054757;19;5010;-79
2023/01/31 06:27:32;;;;;;;;;;;19.00;36.20;;;;;;3053251;19;5029;-79
2023/01/31 06:28:33;;;;;;;;;;;19.00;36.20;;;;;;3052688;19;4981;-77
2023/01/31 06:29:33;;;;;;;;;;;19.00;36.30;;;;;;3054182;19;4824;-77
2023/01/31 06:30:34;;;;;;;;;;;19.00;36.30;;;;;;3055114;19;4980;-79
2023/01/31 06:31:35;;;;;;;;;;;18.90;36.30;;;;;;3054625;19;4837;-78
2023/01/31 06:32:36;;;;;;;;;;;18.90;36.30;;;;;;3055022;19;4348;-77
2023/01/31 06:33:36;;;;;;;;;;;18.90;36.30;;;;;;3054554;19;4864;-76
2023/01/31 06:34:37;;;;;;;;;;;18.90;36.30;;;;;;3054236;19;4849;-80
2023/01/31 06:35:38;;;;;;;;;;;18.80;36.30;;;;;;3054933;19;4870;-77
2023/01/31 06:36:38;;;;;;;;;;;18.80;36.30;;;;;;3055903;19;4981;-77
2023/01/31 06:37:39;;;;;;;;;;;18.80;36.40;;;;;;3056942;19;4883;-76
2023/01/31 06:38:40;;;;;;;;;;;18.80;36.40;;;;;;3055922;19;4821;-77
2023/01/31 06:39:40;;;;;;;;;;;18.80;36.60;;;;;;3056222;19;4538;-80
2023/01/31 06:40:41;;;;;;;;;;;18.80;36.60;;;;;;3056939;19;4885;-78
2023/01/31 06:41:42;;;;;;;;;;;18.80;36.60;;;;;;3055860;19;4328;-80
2023/01/31 06:42:43;;;;;;;;;;;18.90;36.80;;;;;;3054355;19;5202;-78
2023/01/31 06:43:43;;;;;;;;;;;18.90;36.60;;;;;;3057451;19;4866;-79
2023/01/31 06:44:44;;;;;;;;;;;19.00;36.50;;;;;;3056751;19;4339;-78
2023/01/31 06:45:45;;;;;;;;;;;19.00;36.50;;;;;;3057476;19;4890;-79
2023/01/31 06:46:45;;;;;;;;;;;19.00;36.40;;;;;;3055799;19;5002;-77
2023/01/31 06:47:46;;;;;;;;;;;19.00;36.30;;;;;;3054865;19;4809;-80
2023/01/31 06:48:47;;;;;;;;;;;19.00;36.30;;;;;;3054745;19;4362;-77
2023/01/31 06:49:48;;;;;;;;;;;19.10;36.30;;;;;;3054288;19;4302;-77
2023/01/31 06:50:48;;;;;;;;;;;19.10;36.20;;;;;;3055387;19;4389;-75
2023/01/31 06:51:49;;;;;;;;;;;19.00;36.20;;;;;;3054903;19;4820;-80
2023/01/31 06:52:50;;;;;;;;;;;19.00;36.10;;;;;;3052813;19;5007;-78
2023/01/31 06:53:51;;;;;;;;;;;19.00;36.10;;;;;;3053305;19;4875;-77
2023/01/31 06:54:52;;;;;;;;;;;19.00;36.10;;;;;;3054283;19;4902;-78
2023/01/31 06:55:53;;;;;;;;;;;19.00;36.20;;;;;;3054046;19;4802;-78
2023/01/31 06:56:53;;;;;;;;;;;19.00;36.20;;;;;;3053545;19;4770;-79
2023/01/31 06:57:54;;;;;;;;;;;19.00;36.20;;;;;;3051969;19;4725;-80
2023/01/31 06:58:55;;;;;;;;;;;19.00;36.20;;;;;;3053691;19;4474;-78
2023/01/31 06:59:55;;;;;;;;;;;19.00;36.40;;;;;;3052575;19;4362;-79
2023/01/31 07:00:57;;;;;;;;;;;19.00;36.30;;;;;;3054693;19;4746;-77
2023/01/31 07:01:58;;;;;;;;;;;18.90;36.30;;;;;;3055373;19;4331;-78
2023/01/31 07:02:58;;;;;;;;;;;19.00;36.30;;;;;;3054593;19;4273;-79
2023/01/31 07:03:59;;;;;;;;;;;19.00;36.40;;;;;;3053152;19;4472;-80
2023/01/31 07:05:00;;;;;;;;;;;19.00;36.40;;;;;;3055343;19;4312;-78
2023/01/31 07:06:00;;;;;;;;;;;18.90;36.30;;;;;;3054858;19;4789;-78
2023/01/31 07:07:01;;;;;;;;;;;18.90;36.30;;;;;;3054413;19;4742;-76
2023/01/31 07:08:02;;;;;;;;;;;18.90;36.40;;;;;;3053826;19;5088;-81
2023/01/31 07:09:02;;;;;;;;;;;18.90;36.40;;;;;;3054441;19;4837;-77
2023/01/31 07:10:03;;;;;;;;;;;18.90;36.50;;;;;;3055190;19;4275;-77
2023/01/31 07:11:04;;;;;;;;;;;18.80;36.60;;;;;;3055900;19;4895;-77
2023/01/31 07:12:05;;;;;;;;;;;18.80;36.50;;;;;;3052652;19;4244;-77
2023/01/31 07:13:05;;;;;;;;;;;18.80;36.60;;;;;;3053346;19;4992;-78
2023/01/31 07:14:06;;;;;;;;;;;18.80;36.60;;;;;;3053174;19;4351;-79
2023/01/31 07:15:08;;;;;;;;;;;18.80;36.60;;;;;;3056152;19;919;-77
2023/01/31 07:16:09;;;;;;;;;;;18.90;36.60;;;;;;3053254;19;4894;-79
2023/01/31 07:17:09;;;;;;;;;;;18.90;36.60;;;;;;3054398;19;4863;-76
2023/01/31 07:18:11;;;;;;;;;;;18.90;36.50;;;;;;3051965;19;4330;-78
2023/01/31 07:19:11;;;;;;;;;;;18.90;36.50;;;;;;3051394;19;4832;-78
2023/01/31 07:20:12;;;;;;;;;;;18.90;36.40;;;;;;3053711;19;4855;-79
2023/01/31 07:21:13;;;;;;;;;;;19.00;36.50;;;;;;3052741;19;4379;-78
2023/01/31 07:22:13;;;;;;;;;;;19.00;36.40;;;;;;3051671;19;4355;-77
2023/01/31 07:23:14;;;;;;;;;;;19.00;36.50;;;;;;3048819;19;1006;-79
2023/01/31 07:24:15;;;;;;;;;;;19.00;36.40;;;;;;3052761;19;4796;-79
2023/01/31 07:25:16;;;;;;;;;;;19.00;36.30;;;;;;3052578;19;4983;-79
2023/01/31 07:26:16;;;;;;;;;;;19.00;36.30;;;;;;3057936;19;4864;-75
2023/01/31 07:27:17;;;;;;;;;;;19.00;36.40;;;;;;3054647;19;4334;-80
2023/01/31 07:28:17;;;;;;;;;;;19.00;36.40;;;;;;3056861;19;4823;-77
2023/01/31 07:29:18;;;;;;;;;;;19.00;36.40;;;;;;3055608;19;4404;-80
2023/01/31 07:30:19;;;;;;;;;;;19.00;36.40;;;;;;3055787;19;4360;-79
2023/01/31 07:31:19;;;;;;;;;;;19.00;36.30;;;;;;3054043;19;4545;-78
2023/01/31 07:32:20;;;;;;;;;;;19.00;36.30;;;;;;3057178;19;4969;-80
2023/01/31 07:33:21;;;;;;;;;;;19.00;36.40;;;;;;3057886;19;4562;-78
2023/01/31 07:34:21;;;;;;;;;;;19.00;36.40;;;;;;3057543;19;4946;-78
2023/01/31 07:35:22;;;;;;;;;;;19.00;36.40;;;;;;3056126;19;4928;-76
2023/01/31 07:36:25;;;;;;;;;;;19.00;36.50;;;;;;3057018;19;4381;-76
2023/01/31 07:37:26;;;;;;;;;;;19.00;36.50;;;;;;3056007;19;4879;-77
2023/01/31 07:38:26;;;;;;;;;;;19.00;36.40;;;;;;3057084;19;4842;-77
2023/01/31 07:39:27;;;;;;;;;;;19.00;36.40;;;;;;3057837;19;4917;-76
2023/01/31 07:40:28;;;;;;;;;;;19.00;36.40;;;;;;3055831;19;4993;-77
2023/01/31 07:41:29;;;;;;;;;;;18.90;36.50;;;;;;3057271;19;4960;-79
2023/01/31 07:42:29;;;;;;;;;;;18.90;36.60;;;;;;3057706;19;5042;-76
2023/01/31 07:43:30;;;;;;;;;;;18.80;36.60;;;;;;3056138;19;5005;-78
2023/01/31 07:44:31;;;;;;;;;;;18.90;36.70;;;;;;3056448;19;4863;-77
2023/01/31 07:45:32;;;;;;;;;;;18.80;36.70;;;;;;3057301;19;4322;-78
2023/01/31 07:46:33;;;;;;;;;;;18.90;36.80;;;;;;3057849;19;4867;-80
2023/01/31 07:47:34;;;;;;;;;;;19.00;36.90;;;;;;3056625;19;5494;-77
2023/01/31 07:48:35;;;;;;;;;;;19.00;36.70;;;;;;3052911;19;4954;-79
2023/01/31 07:49:35;;;;;;;;;;;19.00;36.60;;;;;;3055454;19;4376;-76
2023/01/31 07:50:36;;;;;;;;;;;19.10;36.60;;;;;;3056977;19;4501;-76
2023/01/31 07:51:37;;;;;;;;;;;19.10;36.50;;;;;;3057243;19;4930;-82
2023/01/31 07:52:38;;;;;;;;;;;19.10;36.40;;;;;;3056883;19;4846;-78
2023/01/31 07:53:41;;;;;;;;;;;19.20;36.50;;;;;;3055347;19;4325;-78
2023/01/31 07:54:41;;;;;;;;;;;19.20;36.40;;;;;;3055655;19;5826;-78
2023/01/31 07:55:46;;;;;;;;;;;19.20;36.40;;;;;;3055112;19;4389;-79
2023/01/31 07:56:46;;;;;;;;;;;19.20;36.30;;;;;;3056634;19;4812;-78
2023/01/31 07:57:47;;;;;;;;;;;19.20;36.30;;;;;;3034849;19;4309;-76
2023/01/31 07:58:48;;;;;;;;;;;19.20;36.30;;;;;;3056628;19;4346;-77
2023/01/31 07:59:49;;;;;;;;;;;19.20;36.30;;;;;;3054770;19;4451;-78
2023/01/31 08:03:32;;;;;;;;;;;19.10;36.30;;;;;;3055556;19;4892;-78
2023/01/31 08:04:33;;;;;;;;;;;19.10;36.30;;;;;;3056094;19;4523;-78
2023/01/31 08:05:33;;;;;;;;;;;19.10;36.40;;;;;;3056228;19;4956;-77
2023/01/31 08:06:34;;;;;;;;;;;19.10;36.30;;;;;;3053614;19;5151;-77
2023/01/31 08:07:35;;;;;;;;;;;19.00;36.30;;;;;;3054616;19;5097;-78
2023/01/31 08:08:36;;;;;;;;;;;19.00;36.40;;;;;;3054314;19;4336;-77
2023/01/31 08:09:37;;;;;;;;;;;19.00;36.30;;;;;;3056041;19;4963;-78
2023/01/31 08:10:39;;;;;;;;;;;19.00;36.40;;;;;;3055897;19;4506;-80
2023/01/31 08:11:39;;;;;;;;;;;19.00;36.50;;;;;;3053567;19;4755;-77
2023/01/31 08:12:40;;;;;;;;;;;19.00;36.50;;;;;;3056599;19;4356;-78
2023/01/31 08:13:41;;;;;;;;;;;19.00;36.60;;;;;;3055183;19;4930;-79
2023/01/31 08:14:41;;;;;;;;;;;19.00;36.70;;;;;;3056373;19;4347;-79
2023/01/31 08:15:42;;;;;;;;;;;19.10;36.60;;;;;;3053253;19;4922;-78
2023/01/31 08:16:43;;;;;;;;;;;19.10;36.50;;;;;;3056748;19;4744;-77
2023/01/31 08:17:44;;;;;;;;;;;19.10;36.40;;;;;;3050259;19;4906;-78
2023/01/31 08:18:44;;;;;;;;;;;19.20;36.40;;;;;;3052798;19;4918;-81
2023/01/31 08:19:45;;;;;;;;;;;19.20;36.40;;;;;;3051559;19;4355;-78
2023/01/31 08:20:46;;;;;;;;;;;19.20;36.40;;;;;;3053087;19;5018;-77
2023/01/31 08:21:46;;;;;;;;;;;19.20;36.30;;;;;;3055584;19;4358;-79
2023/01/31 08:22:47;;;;;;;;;;;19.20;36.20;;;;;;3053497;19;4844;-83
2023/01/31 08:23:48;;;;;;;;;;;19.20;36.20;;;;;;3051835;19;4355;-81
2023/01/31 08:24:48;;;;;;;;;;;19.20;36.20;;;;;;3052835;19;4880;-80
2023/01/31 08:25:49;;;;;;;;;;;19.20;36.20;;;;;;3054954;19;4806;-77
2023/01/31 08:26:50;;;;;;;;;;;19.20;36.10;;;;;;3055534;19;4857;-77
2023/01/31 08:27:51;;;;;;;;;;;19.20;36.20;;;;;;3052758;19;4818;-79
2023/01/31 08:28:52;;;;;;;;;;;19.20;36.10;;;;;;3052308;19;4829;-78
2023/01/31 08:29:53;;;;;;;;;;;19.20;36.20;;;;;;3052675;19;4382;-78
2023/01/31 08:30:54;;;;;;;;;;;19.20;36.10;;;;;;3053307;19;4829;-78
2023/01/31 08:31:54;;;;;;;;;;;19.20;36.20;;;;;;3055146;19;5162;-76
2023/01/31 08:32:55;;;;;;;;;;;19.20;36.20;;;;;;3052214;19;4851;-78
2023/01/31 08:33:56;;;;;;;;;;;19.20;36.20;;;;;;3054371;19;4327;-79
2023/01/31 08:34:57;;;;;;;;;;;19.10;36.20;;;;;;3055191;19;5118;-79
2023/01/31 08:36:07;;;;;;;;;;;19.10;36.20;;;;;;3052899;19;4336;-77
2023/01/31 08:37:08;;;;;;;;;;;19.10;36.30;;;;;;3052878;19;4981;-77
2023/01/31 08:38:09;;;;;;;;;;;19.10;36.30;;;;;;3055641;19;4933;-79
2023/01/31 08:39:09;;;;;;;;;;;19.00;36.20;;;;;;3054294;19;4929;-77
2023/01/31 08:40:11;;;;;;;;;;;19.10;36.30;;;;;;3056945;19;5094;-78
2023/01/31 08:41:11;;;;;;;;;;;19.00;36.30;;;;;;3056400;19;5013;-77
2023/01/31 08:42:12;;;;;;;;;;;19.00;36.40;;;;;;3054405;19;4403;-77
2023/01/31 08:43:13;;;;;;;;;;;19.00;36.50;;;;;;3055654;19;5051;-78
2023/01/31 08:44:14;;;;;;;;;;;19.00;36.40;;;;;;3054067;19;701;-78
2023/01/31 08:45:14;;;;;;;;;;;19.10;36.50;;;;;;3053237;19;5472;-78